createdAt,value
2017-05-07T00:00:07.797Z,86.28
2017-05-07T00:01:08.364Z,85.10
2017-05-07T00:02:07.879Z,84.72
2017-05-07T00:03:08.495Z,87.00
2017-05-07T00:04:08.095Z,86.14
2017-05-07T00:05:07.938Z,85.82
2017-05-07T00:06:07.381Z,85.02
2017-05-07T00:07:08.012Z,84.99
2017-05-07T00:08:07.583Z,85.49
2017-05-07T00:09:08.154Z,85.41
2017-05-07T00:10:07.708Z,86.80
2017-05-07T00:11:08.346Z,86.97
2017-05-07T00:12:07.847Z,87.02
2017-05-07T00:13:08.497Z,86.33
2017-05-07T00:14:07.985Z,87.17
2017-05-07T00:15:07.489Z,86.32
2017-05-07T00:16:08.087Z,86.73
2017-05-07T00:17:07.870Z,86.01
2017-05-07T00:18:08.719Z,86.45
2017-05-07T00:19:08.588Z,85.59
2017-05-07T00:20:08.097Z,86.12
2017-05-07T00:21:07.681Z,87.04
2017-05-07T00:22:08.250Z,86.72
2017-05-07T00:23:07.845Z,86.66
2017-05-07T00:24:08.342Z,87.60
2017-05-07T00:25:07.974Z,87.63
2017-05-07T00:26:07.496Z,86.73
2017-05-07T00:27:08.139Z,87.48
2017-05-07T00:28:07.937Z,86.89
2017-05-07T00:29:07.478Z,87.51
2017-05-07T00:30:08.000Z,87.58
2017-05-07T00:31:07.593Z,87.28
2017-05-07T00:32:08.431Z,86.33
2017-05-07T00:33:07.999Z,87.21
2017-05-07T00:34:07.558Z,86.75
2017-05-07T00:35:08.080Z,86.46
2017-05-07T00:36:07.601Z,86.63
2017-05-07T00:37:08.190Z,86.58
2017-05-07T00:38:33.319Z,86.90
2017-05-07T00:39:08.121Z,86.93
2017-05-07T00:40:07.653Z,86.74
2017-05-07T00:41:08.127Z,86.94
2017-05-07T00:42:07.766Z,86.39
2017-05-07T00:43:27.923Z,85.53
2017-05-07T00:44:08.442Z,85.60
2017-05-07T00:45:08.017Z,86.65
2017-05-07T00:46:07.592Z,86.25
2017-05-07T00:47:08.123Z,85.63
2017-05-07T00:48:07.690Z,85.77
2017-05-07T00:49:08.397Z,84.67
2017-05-07T00:50:07.922Z,85.69
2017-05-07T00:51:08.507Z,87.10
2017-05-07T00:52:08.064Z,86.14
2017-05-07T00:53:07.617Z,86.35
2017-05-07T00:54:08.283Z,86.17
2017-05-07T00:55:07.737Z,87.09
2017-05-07T00:56:08.336Z,87.59
2017-05-07T00:57:07.792Z,86.86
2017-05-07T00:58:08.315Z,86.43
2017-05-07T00:59:08.256Z,86.67
2017-05-07T01:00:07.845Z,85.14
2017-05-07T01:01:08.397Z,86.10
2017-05-07T01:02:07.994Z,87.23
2017-05-07T01:03:07.516Z,87.47
2017-05-07T01:04:08.363Z,86.55
2017-05-07T01:05:07.962Z,87.72
2017-05-07T01:06:07.745Z,87.49
2017-05-07T01:07:08.324Z,86.50
2017-05-07T01:08:07.872Z,87.47
2017-05-07T01:09:09.308Z,88.12
2017-05-07T01:10:08.740Z,87.84
2017-05-07T01:11:08.311Z,87.50
2017-05-07T01:12:07.911Z,87.04
2017-05-07T01:13:08.478Z,87.02
2017-05-07T01:14:08.929Z,88.22
2017-05-07T01:15:09.355Z,88.48
2017-05-07T01:16:07.877Z,88.90
2017-05-07T01:17:09.394Z,87.65
2017-05-07T01:18:08.867Z,88.91
2017-05-07T01:19:08.503Z,87.69
2017-05-07T01:20:08.037Z,87.58
2017-05-07T01:21:07.556Z,87.66
2017-05-07T01:22:08.984Z,88.26
2017-05-07T01:23:08.413Z,87.05
2017-05-07T01:24:08.898Z,86.71
2017-05-07T01:25:09.400Z,87.06
2017-05-07T01:26:07.838Z,86.54
2017-05-07T01:28:07.933Z,86.92
2017-05-07T01:30:07.876Z,86.41
2017-05-07T01:31:09.472Z,85.82
2017-05-07T01:32:08.370Z,86.73
2017-05-07T01:34:27.917Z,87.11
2017-05-07T01:35:08.370Z,86.93
2017-05-07T01:36:08.159Z,86.39
2017-05-07T01:37:08.590Z,85.36
2017-05-07T01:38:09.067Z,85.96
2017-05-07T01:39:08.488Z,85.24
2017-05-07T01:40:08.937Z,85.30
2017-05-07T01:41:08.425Z,85.47
2017-05-07T01:42:08.850Z,85.75
2017-05-07T01:43:09.311Z,85.86
2017-05-07T01:44:08.741Z,85.84
2017-05-07T01:45:09.190Z,85.50
2017-05-07T01:46:07.879Z,85.57
2017-05-07T01:47:09.399Z,85.85
2017-05-07T01:48:08.455Z,85.23
2017-05-07T01:49:08.076Z,85.64
2017-05-07T01:50:08.558Z,86.47
2017-05-07T01:51:08.122Z,85.88
2017-05-07T01:52:08.582Z,86.36
2017-05-07T01:53:08.114Z,86.35
2017-05-07T01:54:08.548Z,86.45
2017-05-07T01:55:08.997Z,86.32
2017-05-07T01:56:08.427Z,86.64
2017-05-07T01:57:08.867Z,86.46
2017-05-07T01:58:09.705Z,86.31
2017-05-07T01:59:08.211Z,85.01
2017-05-07T02:00:07.731Z,85.74
2017-05-07T02:01:08.229Z,85.89
2017-05-07T02:02:08.699Z,85.95
2017-05-07T02:03:09.149Z,86.10
2017-05-07T02:04:08.604Z,85.82
2017-05-07T02:05:08.219Z,85.88
2017-05-07T02:06:07.655Z,85.23
2017-05-07T02:07:08.204Z,84.90
2017-05-07T02:08:07.679Z,85.45
2017-05-07T02:09:08.372Z,85.19
2017-05-07T02:10:07.851Z,85.16
2017-05-07T02:11:08.421Z,85.00
2017-05-07T02:12:07.990Z,84.60
2017-05-07T02:13:07.427Z,84.84
2017-05-07T02:14:07.954Z,85.36
2017-05-07T02:15:07.739Z,84.49
2017-05-07T02:16:08.357Z,85.13
2017-05-07T02:17:08.134Z,84.89
2017-05-07T02:18:07.886Z,84.90
2017-05-07T02:19:08.457Z,84.99
2017-05-07T02:20:08.297Z,85.28
2017-05-07T02:21:07.818Z,85.32
2017-05-07T02:22:08.334Z,85.92
2017-05-07T02:23:07.871Z,85.75
2017-05-07T02:24:08.480Z,84.01
2017-05-07T02:25:08.161Z,84.34
2017-05-07T02:26:08.092Z,84.66
2017-05-07T02:27:07.849Z,84.28
2017-05-07T02:28:08.471Z,84.79
2017-05-07T02:29:08.045Z,84.41
2017-05-07T02:30:07.565Z,85.06
2017-05-07T02:31:08.031Z,84.40
2017-05-07T02:32:07.548Z,84.17
2017-05-07T02:33:07.971Z,84.09
2017-05-07T02:34:07.815Z,84.55
2017-05-07T02:35:08.342Z,83.97
2017-05-07T02:36:08.009Z,84.19
2017-05-07T02:37:07.813Z,84.31
2017-05-07T02:38:08.364Z,84.34
2017-05-07T02:39:07.909Z,84.92
2017-05-07T02:40:08.542Z,85.69
2017-05-07T02:41:08.340Z,86.21
2017-05-07T02:42:07.872Z,84.69
2017-05-07T02:43:08.540Z,85.37
2017-05-07T02:44:08.098Z,84.20
2017-05-07T02:45:07.971Z,83.87
2017-05-07T02:46:07.519Z,83.59
2017-05-07T02:47:08.074Z,83.65
2017-05-07T02:48:07.675Z,83.87
2017-05-07T02:49:08.228Z,83.05
2017-05-07T02:50:07.797Z,82.65
2017-05-07T02:51:08.514Z,83.97
2017-05-07T02:52:08.076Z,83.74
2017-05-07T02:53:07.677Z,84.19
2017-05-07T02:54:08.332Z,85.48
2017-05-07T02:55:07.950Z,84.43
2017-05-07T02:56:07.579Z,84.09
2017-05-07T02:57:08.051Z,84.41
2017-05-07T02:58:07.634Z,83.96
2017-05-07T02:59:08.472Z,83.70
2017-05-07T03:00:07.962Z,83.93
2017-05-07T03:01:07.423Z,84.16
2017-05-07T03:02:27.503Z,84.80
2017-05-07T03:03:08.069Z,84.75
2017-05-07T03:04:07.670Z,84.96
2017-05-07T03:05:08.291Z,85.36
2017-05-07T03:06:07.798Z,83.54
2017-05-07T03:07:08.323Z,83.45
2017-05-07T03:08:07.854Z,84.04
2017-05-07T03:09:08.462Z,84.57
2017-05-07T03:10:07.958Z,84.93
2017-05-07T03:11:07.858Z,84.14
2017-05-07T03:12:08.458Z,84.52
2017-05-07T03:13:08.163Z,84.60
2017-05-07T03:14:07.820Z,85.49
2017-05-07T03:15:08.431Z,85.83
2017-05-07T03:16:08.072Z,85.34
2017-05-07T03:17:07.702Z,84.51
2017-05-07T03:18:08.323Z,84.17
2017-05-07T03:19:07.920Z,84.71
2017-05-07T03:20:08.524Z,85.10
2017-05-07T03:21:08.047Z,84.11
2017-05-07T03:22:27.199Z,84.57
2017-05-07T03:23:07.717Z,83.64
2017-05-07T03:24:08.260Z,84.06
2017-05-07T03:25:07.778Z,83.90
2017-05-07T03:26:08.261Z,84.00
2017-05-07T03:27:07.870Z,84.84
2017-05-07T03:28:08.369Z,84.68
2017-05-07T03:29:07.989Z,84.84
2017-05-07T03:30:07.455Z,84.89
2017-05-07T03:31:08.349Z,84.10
2017-05-07T03:32:08.189Z,84.90
2017-05-07T03:33:07.801Z,85.04
2017-05-07T03:34:08.258Z,84.00
2017-05-07T03:35:08.250Z,84.77
2017-05-07T03:36:07.804Z,84.83
2017-05-07T03:37:08.308Z,84.37
2017-05-07T03:38:07.802Z,84.39
2017-05-07T03:39:08.397Z,85.65
2017-05-07T03:40:08.028Z,84.21
2017-05-07T03:41:07.606Z,84.38
2017-05-07T03:42:08.154Z,84.87
2017-05-07T03:43:08.294Z,83.38
2017-05-07T03:44:08.178Z,84.28
2017-05-07T03:45:08.106Z,84.39
2017-05-07T03:46:07.592Z,84.46
2017-05-07T03:47:08.150Z,84.31
2017-05-07T03:48:08.022Z,84.02
2017-05-07T03:49:07.673Z,83.28
2017-05-07T03:50:08.207Z,84.22
2017-05-07T03:51:07.751Z,83.98
2017-05-07T03:52:08.549Z,84.57
2017-05-07T03:53:08.111Z,84.13
2017-05-07T03:54:07.590Z,83.72
2017-05-07T03:55:08.154Z,83.17
2017-05-07T03:56:07.809Z,82.86
2017-05-07T03:57:08.398Z,84.00
2017-05-07T03:58:08.007Z,83.60
2017-05-07T03:59:07.768Z,84.00
2017-05-07T04:00:08.408Z,82.97
2017-05-07T04:01:07.978Z,83.19
2017-05-07T04:02:07.469Z,84.09
2017-05-07T04:03:08.104Z,83.59
2017-05-07T04:04:07.600Z,84.04
2017-05-07T04:05:08.148Z,83.28
2017-05-07T04:06:07.844Z,82.88
2017-05-07T04:07:08.756Z,83.77
2017-05-07T04:08:08.245Z,83.50
2017-05-07T04:09:07.846Z,83.80
2017-05-07T04:10:08.421Z,83.22
2017-05-07T04:11:08.030Z,82.73
2017-05-07T04:12:07.609Z,83.12
2017-05-07T04:13:08.177Z,82.85
2017-05-07T04:14:07.609Z,83.66
2017-05-07T04:15:08.187Z,84.21
2017-05-07T04:16:07.669Z,82.81
2017-05-07T04:17:08.439Z,82.50
2017-05-07T04:18:08.287Z,82.68
2017-05-07T04:19:07.921Z,83.43
2017-05-07T04:20:08.530Z,83.43
2017-05-07T04:21:08.159Z,83.29
2017-05-07T04:22:07.739Z,82.49
2017-05-07T04:23:08.271Z,82.10
2017-05-07T04:24:07.758Z,83.19
2017-05-07T04:25:10.815Z,83.24
2017-05-07T04:26:07.716Z,82.68
2017-05-07T04:27:08.337Z,83.11
2017-05-07T04:28:07.994Z,82.46
2017-05-07T04:29:07.460Z,82.98
2017-05-07T04:30:08.259Z,82.12
2017-05-07T04:31:07.887Z,83.10
2017-05-07T04:32:08.511Z,83.08
2017-05-07T04:33:08.399Z,82.79
2017-05-07T04:34:07.896Z,83.56
2017-05-07T04:35:08.448Z,82.89
2017-05-07T04:36:08.287Z,83.02
2017-05-07T04:37:07.778Z,82.96
2017-05-07T04:38:08.348Z,82.46
2017-05-07T04:39:07.841Z,83.83
2017-05-07T04:40:08.876Z,82.90
2017-05-07T04:41:08.491Z,82.52
2017-05-07T04:42:08.134Z,83.37
2017-05-07T04:43:07.665Z,83.34
2017-05-07T04:44:08.309Z,83.93
2017-05-07T04:45:07.745Z,83.94
2017-05-07T04:46:08.357Z,83.95
2017-05-07T04:47:09.659Z,84.04
2017-05-07T04:48:08.300Z,84.69
2017-05-07T04:49:08.094Z,84.07
2017-05-07T04:50:08.014Z,83.31
2017-05-07T04:51:07.678Z,82.19
2017-05-07T04:52:08.468Z,82.98
2017-05-07T04:53:08.085Z,82.98
2017-05-07T04:54:08.015Z,82.94
2017-05-07T04:55:07.917Z,83.81
2017-05-07T04:56:08.399Z,82.98
2017-05-07T04:57:07.964Z,83.85
2017-05-07T04:58:07.455Z,82.81
2017-05-07T04:59:08.419Z,82.69
2017-05-07T05:00:07.992Z,82.58
2017-05-07T05:01:07.726Z,82.84
2017-05-07T05:02:08.272Z,82.62
2017-05-07T05:03:08.060Z,82.83
2017-05-07T05:04:07.875Z,82.35
2017-05-07T05:05:08.429Z,83.05
2017-05-07T05:06:08.246Z,83.32
2017-05-07T05:07:07.762Z,83.35
2017-05-07T05:08:09.424Z,83.99
2017-05-07T05:09:08.147Z,83.00
2017-05-07T05:10:07.685Z,82.68
2017-05-07T05:11:08.272Z,83.16
2017-05-07T05:12:07.905Z,82.54
2017-05-07T05:13:09.337Z,82.85
2017-05-07T05:14:08.147Z,83.20
2017-05-07T05:15:07.712Z,83.24
2017-05-07T05:16:08.333Z,82.85
2017-05-07T05:17:07.957Z,82.63
2017-05-07T05:18:27.138Z,82.83
2017-05-07T05:19:07.660Z,83.30
2017-05-07T05:20:08.197Z,83.43
2017-05-07T05:21:07.739Z,84.41
2017-05-07T05:22:08.434Z,83.85
2017-05-07T05:23:07.948Z,83.58
2017-05-07T05:24:07.526Z,83.59
2017-05-07T05:25:08.123Z,82.64
2017-05-07T05:26:07.698Z,82.03
2017-05-07T05:27:08.495Z,82.33
2017-05-07T05:28:08.077Z,82.48
2017-05-07T05:29:07.613Z,82.79
2017-05-07T05:30:08.297Z,81.95
2017-05-07T05:31:07.815Z,82.58
2017-05-07T05:32:08.413Z,82.25
2017-05-07T05:33:07.673Z,82.74
2017-05-07T05:34:08.276Z,83.23
2017-05-07T05:35:07.754Z,83.58
2017-05-07T05:36:08.451Z,83.60
2017-05-07T05:37:08.089Z,81.92
2017-05-07T05:38:07.575Z,82.37
2017-05-07T05:39:08.136Z,82.91
2017-05-07T05:40:08.382Z,83.16
2017-05-07T05:41:08.069Z,82.23
2017-05-07T05:42:08.214Z,83.29
2017-05-07T05:43:07.753Z,82.20
2017-05-07T05:44:08.364Z,81.44
2017-05-07T05:45:07.969Z,82.11
2017-05-07T05:46:07.665Z,83.02
2017-05-07T05:47:08.297Z,82.91
2017-05-07T05:48:07.878Z,82.95
2017-05-07T05:49:08.574Z,84.02
2017-05-07T05:50:08.070Z,84.18
2017-05-07T05:51:07.618Z,83.70
2017-05-07T05:52:08.513Z,82.54
2017-05-07T05:53:08.081Z,82.71
2017-05-07T05:54:07.538Z,82.95
2017-05-07T05:55:08.135Z,82.47
2017-05-07T05:56:07.652Z,82.14
2017-05-07T05:57:08.254Z,81.83
2017-05-07T05:58:07.763Z,82.43
2017-05-07T05:59:08.361Z,82.91
2017-05-07T06:00:07.984Z,83.05
2017-05-07T06:01:07.442Z,83.03
2017-05-07T06:02:08.036Z,82.75
2017-05-07T06:03:07.589Z,83.07
2017-05-07T06:04:08.171Z,82.43
2017-05-07T06:05:07.674Z,82.53
2017-05-07T06:06:08.439Z,83.07
2017-05-07T06:07:08.076Z,82.67
2017-05-07T06:08:08.053Z,83.29
2017-05-07T06:09:07.585Z,82.92
2017-05-07T06:10:08.159Z,83.33
2017-05-07T06:11:07.749Z,83.88
2017-05-07T06:12:08.560Z,83.31
2017-05-07T06:13:08.231Z,83.51
2017-05-07T06:14:07.750Z,83.37
2017-05-07T06:15:08.317Z,83.33
2017-05-07T06:16:07.826Z,84.33
2017-05-07T06:17:08.462Z,83.14
2017-05-07T06:18:07.957Z,83.76
2017-05-07T06:19:07.541Z,84.14
2017-05-07T06:20:08.293Z,84.47
2017-05-07T06:21:07.862Z,84.16
2017-05-07T06:22:08.426Z,82.95
2017-05-07T06:23:07.972Z,83.09
2017-05-07T06:24:07.640Z,83.02
2017-05-07T06:25:08.242Z,83.35
2017-05-07T06:26:08.106Z,83.97
2017-05-07T06:27:07.561Z,83.72
2017-05-07T06:28:08.060Z,84.08
2017-05-07T06:29:07.555Z,83.72
2017-05-07T06:30:08.883Z,83.57
2017-05-07T06:31:08.454Z,84.16
2017-05-07T06:32:08.352Z,83.12
2017-05-07T06:33:07.820Z,83.69
2017-05-07T06:34:07.742Z,84.35
2017-05-07T06:35:08.279Z,84.22
2017-05-07T06:36:08.072Z,84.57
2017-05-07T06:37:07.550Z,83.75
2017-05-07T06:38:08.082Z,83.56
2017-05-07T06:39:07.639Z,83.70
2017-05-07T06:40:08.673Z,84.47
2017-05-07T06:41:08.114Z,85.62
2017-05-07T06:42:07.612Z,84.74
2017-05-07T06:43:08.163Z,85.26
2017-05-07T06:44:07.759Z,84.51
2017-05-07T06:45:08.308Z,83.94
2017-05-07T06:46:07.872Z,84.05
2017-05-07T06:47:08.345Z,84.33
2017-05-07T06:48:08.027Z,84.22
2017-05-07T06:49:07.829Z,84.64
2017-05-07T06:50:08.436Z,84.31
2017-05-07T06:51:08.242Z,84.81
2017-05-07T06:52:07.972Z,85.39
2017-05-07T06:53:07.750Z,85.32
2017-05-07T06:54:08.462Z,85.26
2017-05-07T06:55:08.041Z,85.01
2017-05-07T06:56:07.842Z,84.24
2017-05-07T06:57:08.452Z,84.36
2017-05-07T06:58:08.062Z,85.49
2017-05-07T06:59:07.594Z,85.25
2017-05-07T07:00:08.416Z,84.47
2017-05-07T07:01:08.046Z,84.68
2017-05-07T07:02:07.920Z,84.78
2017-05-07T07:03:08.466Z,84.91
2017-05-07T07:04:08.029Z,84.84
2017-05-07T07:05:07.559Z,85.05
2017-05-07T07:06:08.077Z,84.66
2017-05-07T07:07:07.703Z,84.40
2017-05-07T07:08:08.196Z,85.23
2017-05-07T07:09:26.604Z,85.02
2017-05-07T07:10:08.104Z,85.43
2017-05-07T07:11:07.556Z,85.80
2017-05-07T07:12:08.125Z,85.80
2017-05-07T07:13:07.978Z,85.88
2017-05-07T07:14:07.855Z,85.58
2017-05-07T07:15:08.349Z,85.82
2017-05-07T07:16:07.922Z,85.48
2017-05-07T07:17:08.649Z,86.00
2017-05-07T07:18:08.189Z,85.99
2017-05-07T07:19:07.761Z,85.98
2017-05-07T07:20:08.481Z,85.71
2017-05-07T07:21:08.070Z,86.04
2017-05-07T07:22:07.536Z,86.35
2017-05-07T07:23:07.975Z,86.54
2017-05-07T07:24:07.504Z,86.23
2017-05-07T07:25:08.012Z,86.46
2017-05-07T07:26:07.465Z,86.60
2017-05-07T07:27:08.056Z,86.59
2017-05-07T07:28:07.636Z,87.21
2017-05-07T07:29:08.349Z,86.25
2017-05-07T07:30:07.836Z,87.14
2017-05-07T07:31:08.669Z,87.34
2017-05-07T07:32:08.502Z,87.74
2017-05-07T07:33:07.976Z,87.17
2017-05-07T07:34:07.524Z,86.89
2017-05-07T07:35:08.195Z,87.57
2017-05-07T07:36:07.673Z,86.72
2017-05-07T07:37:08.129Z,86.58
2017-05-07T07:38:07.729Z,87.68
2017-05-07T07:39:08.377Z,88.15
2017-05-07T07:40:07.983Z,88.35
2017-05-07T07:41:07.498Z,88.94
2017-05-07T07:42:07.958Z,88.31
2017-05-07T07:43:07.760Z,88.22
2017-05-07T07:44:08.451Z,88.42
2017-05-07T07:45:08.144Z,88.48
2017-05-07T07:46:07.646Z,87.76
2017-05-07T07:47:08.240Z,87.82
2017-05-07T07:48:07.762Z,88.74
2017-05-07T07:49:08.389Z,87.41
2017-05-07T07:50:07.962Z,86.63
2017-05-07T07:51:07.511Z,87.34
2017-05-07T07:52:08.050Z,87.09
2017-05-07T07:53:07.501Z,87.14
2017-05-07T07:54:08.061Z,87.37
2017-05-07T07:55:07.569Z,87.20
2017-05-07T07:56:08.027Z,87.06
2017-05-07T07:57:07.511Z,88.09
2017-05-07T07:58:08.158Z,87.88
2017-05-07T07:59:07.680Z,87.91
2017-05-07T08:00:08.321Z,87.80
2017-05-07T08:01:07.861Z,87.20
2017-05-07T08:02:08.392Z,86.57
2017-05-07T08:03:07.901Z,87.51
2017-05-07T08:04:08.553Z,88.41
2017-05-07T08:05:08.073Z,88.16
2017-05-07T08:06:07.821Z,87.94
2017-05-07T08:07:08.310Z,87.72
2017-05-07T08:08:07.827Z,87.28
2017-05-07T08:09:08.389Z,88.25
2017-05-07T08:10:07.974Z,88.45
2017-05-07T08:11:07.472Z,88.12
2017-05-07T08:12:08.113Z,88.11
2017-05-07T08:13:07.810Z,88.37
2017-05-07T08:14:08.559Z,87.92
2017-05-07T08:15:08.149Z,88.35
2017-05-07T08:16:07.608Z,88.07
2017-05-07T08:17:08.255Z,88.00
2017-05-07T08:18:07.740Z,87.39
2017-05-07T08:19:08.203Z,87.15
2017-05-07T08:20:07.839Z,87.52
2017-05-07T08:21:08.720Z,87.80
2017-05-07T08:22:08.293Z,88.25
2017-05-07T08:23:07.828Z,88.56
2017-05-07T08:24:08.332Z,88.35
2017-05-07T08:25:07.850Z,88.19
2017-05-07T08:26:08.469Z,88.02
2017-05-07T08:27:08.080Z,89.73
2017-05-07T08:28:07.599Z,89.63
2017-05-07T08:29:08.397Z,89.94
2017-05-07T08:30:08.058Z,89.35
2017-05-07T08:31:07.612Z,88.88
2017-05-07T08:32:08.422Z,89.16
2017-05-07T08:33:08.227Z,88.85
2017-05-07T08:34:07.897Z,89.29
2017-05-07T08:35:08.572Z,89.50
2017-05-07T08:36:08.411Z,89.38
2017-05-07T08:37:07.857Z,89.58
2017-05-07T08:38:08.390Z,89.09
2017-05-07T08:39:08.424Z,89.26
2017-05-07T08:40:07.970Z,88.77
2017-05-07T08:41:07.643Z,88.65
2017-05-07T08:42:08.184Z,88.61
2017-05-07T08:43:07.869Z,88.77
2017-05-07T08:44:08.426Z,88.70
2017-05-07T08:45:07.868Z,88.99
2017-05-07T08:46:08.383Z,88.14
2017-05-07T08:47:07.909Z,89.58
2017-05-07T08:48:08.480Z,90.18
2017-05-07T08:49:08.075Z,90.03
2017-05-07T08:50:07.597Z,90.05
2017-05-07T08:51:08.175Z,90.10
2017-05-07T08:52:07.834Z,90.63
2017-05-07T08:53:08.480Z,91.32
2017-05-07T08:54:07.963Z,89.62
2017-05-07T08:55:07.555Z,90.24
2017-05-07T08:56:08.122Z,89.93
2017-05-07T08:57:07.599Z,89.73
2017-05-07T08:58:08.028Z,89.76
2017-05-07T08:59:07.767Z,90.61
2017-05-07T09:00:08.336Z,90.70
2017-05-07T09:01:07.874Z,91.16
2017-05-07T09:02:08.476Z,90.58
2017-05-07T09:03:07.940Z,90.71
2017-05-07T09:04:07.440Z,90.37
2017-05-07T09:05:07.905Z,89.68
2017-05-07T09:06:08.476Z,89.56
2017-05-07T09:07:08.048Z,89.85
2017-05-07T09:08:07.554Z,90.12
2017-05-07T09:09:08.048Z,90.51
2017-05-07T09:10:07.508Z,90.15
2017-05-07T09:11:08.033Z,89.95
2017-05-07T09:12:07.573Z,90.01
2017-05-07T09:13:08.078Z,90.38
2017-05-07T09:14:07.770Z,90.26
2017-05-07T09:15:08.376Z,90.07
2017-05-07T09:16:08.035Z,90.32
2017-05-07T09:17:07.661Z,89.71
2017-05-07T09:18:08.303Z,89.18
2017-05-07T09:19:07.808Z,89.09
2017-05-07T09:20:08.411Z,90.32
2017-05-07T09:21:08.005Z,90.38
2017-05-07T09:22:07.618Z,90.22
2017-05-07T09:23:08.158Z,88.55
2017-05-07T09:24:07.716Z,89.54
2017-05-07T09:25:08.286Z,90.90
2017-05-07T09:26:07.775Z,91.58
2017-05-07T09:27:08.257Z,91.13
2017-05-07T09:28:07.755Z,90.90
2017-05-07T09:29:08.213Z,90.72
2017-05-07T09:30:07.645Z,89.73
2017-05-07T09:31:08.000Z,90.22
2017-05-07T09:32:07.480Z,90.02
2017-05-07T09:33:08.055Z,89.60
2017-05-07T09:34:07.586Z,89.84
2017-05-07T09:35:08.466Z,90.57
2017-05-07T09:36:08.012Z,91.47
2017-05-07T09:37:07.451Z,91.36
2017-05-07T09:38:08.026Z,91.03
2017-05-07T09:39:07.536Z,90.00
2017-05-07T09:40:08.047Z,90.44
2017-05-07T09:41:07.568Z,91.29
2017-05-07T09:42:08.130Z,90.70
2017-05-07T09:43:07.706Z,91.34
2017-05-07T09:44:08.311Z,91.17
2017-05-07T09:45:07.795Z,90.12
2017-05-07T09:46:08.349Z,90.63
2017-05-07T09:47:07.852Z,91.19
2017-05-07T09:48:08.424Z,91.58
2017-05-07T09:49:08.023Z,90.87
2017-05-07T09:50:07.828Z,90.93
2017-05-07T09:51:08.398Z,91.08
2017-05-07T09:52:07.910Z,91.32
2017-05-07T09:53:08.609Z,90.64
2017-05-07T09:54:08.431Z,90.72
2017-05-07T09:55:07.920Z,90.81
2017-05-07T09:56:08.415Z,91.43
2017-05-07T09:57:08.840Z,91.46
2017-05-07T09:58:08.723Z,91.08
2017-05-07T09:59:08.641Z,90.50
2017-05-07T10:00:08.567Z,91.83
2017-05-07T10:01:08.452Z,90.48
2017-05-07T10:02:08.081Z,91.33
2017-05-07T10:03:07.630Z,91.15
2017-05-07T10:04:08.173Z,91.75
2017-05-07T10:05:07.750Z,91.82
2017-05-07T10:06:08.365Z,91.59
2017-05-07T10:07:07.878Z,91.57
2017-05-07T10:08:08.461Z,91.11
2017-05-07T10:09:07.990Z,90.69
2017-05-07T10:10:07.572Z,91.13
2017-05-07T10:11:08.178Z,92.22
2017-05-07T10:12:07.750Z,92.06
2017-05-07T10:13:08.378Z,91.67
2017-05-07T10:14:07.870Z,91.53
2017-05-07T10:15:08.494Z,91.86
2017-05-07T10:16:08.087Z,91.76
2017-05-07T10:17:14.261Z,91.65
2017-05-07T10:18:08.034Z,92.05
2017-05-07T10:19:07.491Z,92.65
2017-05-07T10:20:08.064Z,91.95
2017-05-07T10:21:07.644Z,91.82
2017-05-07T10:22:08.448Z,91.81
2017-05-07T10:23:07.893Z,91.12
2017-05-07T10:24:08.683Z,91.17
2017-05-07T10:25:08.232Z,90.13
2017-05-07T10:26:08.019Z,90.10
2017-05-07T10:27:07.680Z,90.83
2017-05-07T10:28:08.283Z,91.09
2017-05-07T10:29:08.035Z,91.15
2017-05-07T10:30:07.942Z,91.55
2017-05-07T10:31:07.493Z,91.50
2017-05-07T10:32:08.212Z,91.49
2017-05-07T10:33:07.691Z,91.94
2017-05-07T10:34:09.286Z,91.79
2017-05-07T10:35:07.860Z,92.00
2017-05-07T10:36:08.844Z,91.34
2017-05-07T10:37:27.921Z,91.76
2017-05-07T10:38:08.531Z,90.77
2017-05-07T10:39:08.020Z,91.65
2017-05-07T10:40:07.560Z,91.68
2017-05-07T10:41:08.009Z,91.15
2017-05-07T10:42:07.488Z,90.76
2017-05-07T10:43:08.009Z,90.12
2017-05-07T10:44:07.559Z,89.61
2017-05-07T10:45:08.326Z,89.95
2017-05-07T10:46:07.852Z,90.78
2017-05-07T10:47:08.462Z,90.09
2017-05-07T10:48:08.084Z,89.64
2017-05-07T10:49:07.582Z,89.81
2017-05-07T10:50:08.141Z,90.49
2017-05-07T10:51:07.675Z,89.26
2017-05-07T10:52:08.231Z,88.86
2017-05-07T10:53:07.997Z,88.89
2017-05-07T10:54:07.595Z,89.77
2017-05-07T10:55:08.153Z,89.32
2017-05-07T10:56:07.696Z,88.71
2017-05-07T10:57:08.185Z,89.00
2017-05-07T10:58:07.872Z,88.59
2017-05-07T10:59:08.652Z,88.55
2017-05-07T11:00:08.244Z,88.68
2017-05-07T11:01:07.731Z,88.58
2017-05-07T11:02:08.268Z,88.40
2017-05-07T11:03:07.832Z,87.89
2017-05-07T11:04:08.313Z,88.49
2017-05-07T11:05:07.800Z,88.28
2017-05-07T11:06:08.366Z,88.63
2017-05-07T11:07:07.927Z,89.14
2017-05-07T11:08:08.602Z,87.64
2017-05-07T11:09:08.154Z,87.78
2017-05-07T11:10:07.744Z,88.28
2017-05-07T11:11:08.292Z,88.19
2017-05-07T11:12:08.049Z,88.45
2017-05-07T11:13:07.480Z,88.57
2017-05-07T11:14:08.031Z,88.74
2017-05-07T11:15:07.543Z,87.96
2017-05-07T11:16:08.157Z,88.02
2017-05-07T11:17:07.847Z,88.70
2017-05-07T11:18:08.397Z,89.04
2017-05-07T11:19:08.006Z,88.41
2017-05-07T11:20:07.530Z,89.07
2017-05-07T11:21:08.031Z,88.42
2017-05-07T11:22:07.513Z,87.91
2017-05-07T11:23:08.130Z,88.01
2017-05-07T11:24:13.336Z,88.18
2017-05-07T11:25:08.122Z,87.95
2017-05-07T11:26:07.650Z,88.35
2017-05-07T11:27:08.392Z,88.36
2017-05-07T11:28:07.970Z,88.46
2017-05-07T11:29:07.484Z,88.21
2017-05-07T11:30:07.961Z,88.28
2017-05-07T11:31:07.445Z,89.05
2017-05-07T11:32:07.871Z,89.97
2017-05-07T11:33:08.085Z,90.07
2017-05-07T11:34:07.677Z,90.38
2017-05-07T11:35:08.267Z,90.63
2017-05-07T11:36:07.866Z,90.96
2017-05-07T11:37:08.443Z,91.14
2017-05-07T11:38:07.963Z,90.35
2017-05-07T11:39:07.735Z,89.99
2017-05-07T11:40:08.299Z,90.77
2017-05-07T11:41:08.175Z,90.43
2017-05-07T11:42:07.636Z,91.31
2017-05-07T11:43:08.226Z,91.91
2017-05-07T11:44:08.064Z,91.34
2017-05-07T11:45:07.709Z,91.94
2017-05-07T11:46:08.271Z,91.98
2017-05-07T11:47:07.801Z,91.98
2017-05-07T11:48:08.280Z,91.87
2017-05-07T11:49:08.067Z,91.84
2017-05-07T11:50:07.575Z,91.78
2017-05-07T11:51:08.161Z,91.93
2017-05-07T11:52:07.866Z,91.92
2017-05-07T11:53:08.505Z,91.70
2017-05-07T11:54:08.006Z,92.03
2017-05-07T11:55:07.577Z,92.09
2017-05-07T11:56:08.374Z,92.04
2017-05-07T11:57:07.911Z,92.07
2017-05-07T11:58:08.384Z,90.65
2017-05-07T11:59:08.052Z,90.03
2017-05-07T12:00:07.953Z,90.12
2017-05-07T12:01:07.524Z,90.27
2017-05-07T12:02:08.100Z,89.85
2017-05-07T12:03:07.609Z,89.81
2017-05-07T12:04:08.713Z,90.12
2017-05-07T12:05:08.328Z,89.78
2017-05-07T12:06:07.777Z,90.03
2017-05-07T12:07:08.341Z,89.34
2017-05-07T12:08:07.859Z,89.96
2017-05-07T12:09:08.740Z,90.00
2017-05-07T12:10:08.263Z,90.08
2017-05-07T12:11:07.749Z,88.99
2017-05-07T12:12:08.229Z,90.15
2017-05-07T12:13:07.804Z,90.56
2017-05-07T12:14:08.398Z,89.96
2017-05-07T12:15:08.116Z,90.54
2017-05-07T12:16:07.671Z,90.33
2017-05-07T12:17:08.593Z,89.87
2017-05-07T12:18:08.186Z,89.15
2017-05-07T12:19:08.092Z,89.84
2017-05-07T12:20:07.607Z,90.57
2017-05-07T12:21:08.109Z,89.71
2017-05-07T12:22:07.764Z,90.01
2017-05-07T12:23:08.303Z,90.09
2017-05-07T12:24:07.828Z,90.78
2017-05-07T12:25:08.418Z,90.20
2017-05-07T12:26:07.917Z,90.40
2017-05-07T12:27:08.522Z,90.26
2017-05-07T12:28:08.061Z,89.30
2017-05-07T12:29:07.747Z,89.44
2017-05-07T12:30:08.366Z,89.14
2017-05-07T12:31:07.827Z,88.72
2017-05-07T12:32:08.504Z,88.65
2017-05-07T12:33:08.086Z,88.71
2017-05-07T12:34:07.706Z,89.50
2017-05-07T12:35:08.291Z,89.34
2017-05-07T12:36:07.867Z,89.03
2017-05-07T12:37:08.497Z,89.51
2017-05-07T12:38:08.054Z,89.74
2017-05-07T12:39:07.947Z,89.92
2017-05-07T12:40:07.455Z,88.62
2017-05-07T12:41:07.948Z,88.32
2017-05-07T12:42:07.486Z,88.23
2017-05-07T12:43:08.039Z,87.90
2017-05-07T12:44:07.639Z,88.13
2017-05-07T12:45:08.964Z,88.00
2017-05-07T12:46:07.528Z,88.81
2017-05-07T12:47:08.369Z,89.23
2017-05-07T12:48:07.898Z,89.91
2017-05-07T12:49:08.462Z,89.83
2017-05-07T12:50:07.951Z,89.99
2017-05-07T12:51:07.627Z,89.86
2017-05-07T12:52:08.203Z,89.37
2017-05-07T12:53:07.768Z,89.15
2017-05-07T12:54:08.433Z,89.38
2017-05-07T12:55:08.175Z,90.57